sensor_id;sensor_type;location;lat;lon;timestamp;P1;durP1;ratioP1;P2;durP2;ratioP2
72920;SDS011;61064;51.654;5.476;2022-07-10T00:00:34;7.57;;;1.20;;
72920;SDS011;61064;51.654;5.476;2022-07-10T00:03:03;5.85;;;1.02;;
72920;SDS011;61064;51.654;5.476;2022-07-10T00:05:30;7.07;;;1.27;;
72920;SDS011;61064;51.654;5.476;2022-07-10T00:07:56;6.57;;;1.20;;
72920;SDS011;61064;51.654;5.476;2022-07-10T00:10:22;7.13;;;1.20;;
72920;SDS011;61064;51.654;5.476;2022-07-10T00:12:49;6.68;;;1.25;;
72920;SDS011;61064;51.654;5.476;2022-07-10T00:15:16;8.48;;;1.20;;
72920;SDS011;61064;51.654;5.476;2022-07-10T00:17:43;6.20;;;1.17;;
72920;SDS011;61064;51.654;5.476;2022-07-10T00:20:09;4.80;;;1.00;;
72920;SDS011;61064;51.654;5.476;2022-07-10T00:22:36;7.43;;;1.10;;
72920;SDS011;61064;51.654;5.476;2022-07-10T00:25:06;9.88;;;1.63;;
72920;SDS011;61064;51.654;5.476;2022-07-10T00:27:32;6.53;;;1.05;;
72920;SDS011;61064;51.654;5.476;2022-07-10T00:29:58;6.50;;;1.30;;
72920;SDS011;61064;51.654;5.476;2022-07-10T00:32:24;7.32;;;1.23;;
72920;SDS011;61064;51.654;5.476;2022-07-10T00:34:49;7.93;;;1.40;;
72920;SDS011;61064;51.654;5.476;2022-07-10T00:37:15;7.38;;;1.20;;
72920;SDS011;61064;51.654;5.476;2022-07-10T00:39:41;7.70;;;1.40;;
72920;SDS011;61064;51.654;5.476;2022-07-10T00:42:07;7.73;;;1.17;;
72920;SDS011;61064;51.654;5.476;2022-07-10T00:44:33;5.22;;;1.23;;
72920;SDS011;61064;51.654;5.476;2022-07-10T00:46:59;5.43;;;1.07;;
72920;SDS011;61064;51.654;5.476;2022-07-10T00:49:24;7.07;;;1.37;;
72920;SDS011;61064;51.654;5.476;2022-07-10T00:51:49;7.90;;;1.50;;
72920;SDS011;61064;51.654;5.476;2022-07-10T00:54:15;10.00;;;1.30;;
72920;SDS011;61064;51.654;5.476;2022-07-10T00:56:41;5.07;;;1.27;;
72920;SDS011;61064;51.654;5.476;2022-07-10T00:59:08;9.30;;;1.60;;
72920;SDS011;61064;51.654;5.476;2022-07-10T01:01:34;9.03;;;1.67;;
72920;SDS011;61064;51.654;5.476;2022-07-10T01:04:01;6.60;;;1.17;;
72920;SDS011;61064;51.654;5.476;2022-07-10T01:06:26;8.63;;;1.17;;
72920;SDS011;61064;51.654;5.476;2022-07-10T01:08:52;6.60;;;1.27;;
72920;SDS011;61064;51.654;5.476;2022-07-10T01:11:17;6.43;;;1.10;;
72920;SDS011;61064;51.654;5.476;2022-07-10T01:13:43;9.57;;;1.20;;
72920;SDS011;61064;51.654;5.476;2022-07-10T01:16:09;5.40;;;1.00;;
72920;SDS011;61064;51.654;5.476;2022-07-10T01:18:35;6.47;;;0.98;;
72920;SDS011;61064;51.654;5.476;2022-07-10T01:21:00;7.63;;;1.50;;
72920;SDS011;61064;51.654;5.476;2022-07-10T01:23:25;8.23;;;1.47;;
72920;SDS011;61064;51.654;5.476;2022-07-10T01:25:51;7.73;;;1.13;;
72920;SDS011;61064;51.654;5.476;2022-07-10T01:28:19;9.18;;;1.50;;
72920;SDS011;61064;51.654;5.476;2022-07-10T01:30:46;9.57;;;1.50;;
72920;SDS011;61064;51.654;5.476;2022-07-10T01:33:12;7.45;;;1.20;;
72920;SDS011;61064;51.654;5.476;2022-07-10T01:35:38;7.40;;;1.60;;
72920;SDS011;61064;51.654;5.476;2022-07-10T01:38:04;8.80;;;1.50;;
72920;SDS011;61064;51.654;5.476;2022-07-10T01:40:29;10.15;;;1.50;;
72920;SDS011;61064;51.654;5.476;2022-07-10T01:42:55;8.13;;;1.87;;
72920;SDS011;61064;51.654;5.476;2022-07-10T01:45:20;8.00;;;1.80;;
72920;SDS011;61064;51.654;5.476;2022-07-10T01:47:46;8.52;;;1.90;;
72920;SDS011;61064;51.654;5.476;2022-07-10T01:50:11;8.70;;;1.87;;
72920;SDS011;61064;51.654;5.476;2022-07-10T01:52:36;10.40;;;2.00;;
72920;SDS011;61064;51.654;5.476;2022-07-10T01:55:03;7.73;;;1.83;;
72920;SDS011;61064;51.654;5.476;2022-07-10T01:57:29;7.43;;;1.77;;
72920;SDS011;61064;51.654;5.476;2022-07-10T01:59:54;10.00;;;1.70;;
72920;SDS011;61064;51.654;5.476;2022-07-10T02:02:20;7.87;;;2.03;;
72920;SDS011;61064;51.654;5.476;2022-07-10T02:04:46;5.63;;;1.70;;
72920;SDS011;61064;51.654;5.476;2022-07-10T02:07:12;6.93;;;1.60;;
72920;SDS011;61064;51.654;5.476;2022-07-10T02:09:39;8.63;;;1.85;;
72920;SDS011;61064;51.654;5.476;2022-07-10T02:12:06;7.47;;;1.57;;
72920;SDS011;61064;51.654;5.476;2022-07-10T02:14:35;11.48;;;1.65;;
72920;SDS011;61064;51.654;5.476;2022-07-10T02:17:01;7.53;;;1.60;;
72920;SDS011;61064;51.654;5.476;2022-07-10T02:19:27;9.43;;;1.90;;
72920;SDS011;61064;51.654;5.476;2022-07-10T02:21:53;6.30;;;1.60;;
72920;SDS011;61064;51.654;5.476;2022-07-10T02:24:18;7.87;;;1.70;;
72920;SDS011;61064;51.654;5.476;2022-07-10T02:26:44;8.33;;;1.60;;
72920;SDS011;61064;51.654;5.476;2022-07-10T02:29:09;9.55;;;1.70;;
72920;SDS011;61064;51.654;5.476;2022-07-10T02:31:37;8.52;;;1.50;;
72920;SDS011;61064;51.654;5.476;2022-07-10T02:34:06;6.38;;;1.55;;
72920;SDS011;61064;51.654;5.476;2022-07-10T02:36:32;7.30;;;1.43;;
72920;SDS011;61064;51.654;5.476;2022-07-10T02:38:58;8.90;;;1.73;;
72920;SDS011;61064;51.654;5.476;2022-07-10T02:41:24;7.30;;;1.80;;
72920;SDS011;61064;51.654;5.476;2022-07-10T02:43:51;8.97;;;1.77;;
72920;SDS011;61064;51.654;5.476;2022-07-10T02:46:16;10.13;;;2.67;;
72920;SDS011;61064;51.654;5.476;2022-07-10T02:48:42;7.30;;;1.80;;
72920;SDS011;61064;51.654;5.476;2022-07-10T02:51:07;8.17;;;1.80;;
72920;SDS011;61064;51.654;5.476;2022-07-10T02:53:32;6.50;;;2.10;;
72920;SDS011;61064;51.654;5.476;2022-07-10T02:55:58;7.00;;;2.00;;
72920;SDS011;61064;51.654;5.476;2022-07-10T02:58:23;7.10;;;1.97;;
72920;SDS011;61064;51.654;5.476;2022-07-10T03:00:49;8.32;;;1.80;;
72920;SDS011;61064;51.654;5.476;2022-07-10T03:03:14;11.27;;;2.07;;
72920;SDS011;61064;51.654;5.476;2022-07-10T03:05:42;9.53;;;2.00;;
72920;SDS011;61064;51.654;5.476;2022-07-10T03:08:08;8.55;;;2.10;;
72920;SDS011;61064;51.654;5.476;2022-07-10T03:10:33;6.13;;;1.60;;
72920;SDS011;61064;51.654;5.476;2022-07-10T03:12:59;7.78;;;1.95;;
72920;SDS011;61064;51.654;5.476;2022-07-10T03:15:25;7.67;;;1.90;;
72920;SDS011;61064;51.654;5.476;2022-07-10T03:17:50;8.63;;;1.90;;
72920;SDS011;61064;51.654;5.476;2022-07-10T03:20:16;9.00;;;1.90;;
72920;SDS011;61064;51.654;5.476;2022-07-10T03:22:41;6.77;;;1.70;;
72920;SDS011;61064;51.654;5.476;2022-07-10T03:25:06;8.20;;;1.90;;
72920;SDS011;61064;51.654;5.476;2022-07-10T03:27:32;6.15;;;1.70;;
72920;SDS011;61064;51.654;5.476;2022-07-10T03:29:58;10.50;;;2.40;;
72920;SDS011;61064;51.654;5.476;2022-07-10T03:32:23;6.73;;;1.83;;
72920;SDS011;61064;51.654;5.476;2022-07-10T03:34:48;9.00;;;1.70;;
72920;SDS011;61064;51.654;5.476;2022-07-10T03:37:14;7.22;;;1.52;;
72920;SDS011;61064;51.654;5.476;2022-07-10T03:39:39;7.73;;;1.60;;
72920;SDS011;61064;51.654;5.476;2022-07-10T03:42:06;9.88;;;2.15;;
72920;SDS011;61064;51.654;5.476;2022-07-10T03:44:31;7.17;;;1.50;;
72920;SDS011;61064;51.654;5.476;2022-07-10T03:46:57;9.80;;;2.10;;
72920;SDS011;61064;51.654;5.476;2022-07-10T03:49:22;10.48;;;2.00;;
72920;SDS011;61064;51.654;5.476;2022-07-10T03:51:48;7.63;;;1.90;;
72920;SDS011;61064;51.654;5.476;2022-07-10T03:54:13;6.47;;;1.80;;
72920;SDS011;61064;51.654;5.476;2022-07-10T03:56:39;7.43;;;1.97;;
72920;SDS011;61064;51.654;5.476;2022-07-10T03:59:23;8.38;;;1.85;;
72920;SDS011;61064;51.654;5.476;2022-07-10T04:01:50;6.85;;;1.63;;
72920;SDS011;61064;51.654;5.476;2022-07-10T04:04:16;6.40;;;1.50;;
72920;SDS011;61064;51.654;5.476;2022-07-10T04:06:42;8.40;;;2.13;;
72920;SDS011;61064;51.654;5.476;2022-07-10T04:09:08;9.53;;;2.20;;
72920;SDS011;61064;51.654;5.476;2022-07-10T04:11:33;8.57;;;2.10;;
72920;SDS011;61064;51.654;5.476;2022-07-10T04:13:58;8.33;;;2.37;;
72920;SDS011;61064;51.654;5.476;2022-07-10T04:16:24;7.70;;;1.92;;
72920;SDS011;61064;51.654;5.476;2022-07-10T04:18:49;9.53;;;2.03;;
72920;SDS011;61064;51.654;5.476;2022-07-10T04:21:15;9.37;;;1.90;;
72920;SDS011;61064;51.654;5.476;2022-07-10T04:23:40;8.10;;;2.07;;
72920;SDS011;61064;51.654;5.476;2022-07-10T04:26:06;9.13;;;2.07;;
72920;SDS011;61064;51.654;5.476;2022-07-10T04:28:31;7.20;;;1.90;;
72920;SDS011;61064;51.654;5.476;2022-07-10T04:30:57;9.43;;;2.20;;
72920;SDS011;61064;51.654;5.476;2022-07-10T04:33:22;8.73;;;1.87;;
72920;SDS011;61064;51.654;5.476;2022-07-10T04:35:48;7.63;;;1.60;;
72920;SDS011;61064;51.654;5.476;2022-07-10T04:38:13;9.07;;;1.80;;
72920;SDS011;61064;51.654;5.476;2022-07-10T04:40:39;8.30;;;1.90;;
72920;SDS011;61064;51.654;5.476;2022-07-10T04:43:04;6.47;;;1.93;;
72920;SDS011;61064;51.654;5.476;2022-07-10T04:45:30;8.57;;;1.80;;
72920;SDS011;61064;51.654;5.476;2022-07-10T04:47:58;8.77;;;1.80;;
72920;SDS011;61064;51.654;5.476;2022-07-10T04:50:23;5.83;;;1.70;;
72920;SDS011;61064;51.654;5.476;2022-07-10T04:52:49;7.88;;;1.55;;
72920;SDS011;61064;51.654;5.476;2022-07-10T04:55:15;7.10;;;1.60;;
72920;SDS011;61064;51.654;5.476;2022-07-10T04:57:40;9.68;;;1.92;;
72920;SDS011;61064;51.654;5.476;2022-07-10T05:00:09;8.30;;;1.63;;
72920;SDS011;61064;51.654;5.476;2022-07-10T05:02:35;10.35;;;1.70;;
72920;SDS011;61064;51.654;5.476;2022-07-10T05:05:01;6.93;;;1.60;;
72920;SDS011;61064;51.654;5.476;2022-07-10T05:07:27;8.00;;;1.70;;
72920;SDS011;61064;51.654;5.476;2022-07-10T05:09:52;10.07;;;1.73;;
72920;SDS011;61064;51.654;5.476;2022-07-10T05:12:17;8.40;;;1.40;;
72920;SDS011;61064;51.654;5.476;2022-07-10T05:14:43;8.10;;;1.60;;
72920;SDS011;61064;51.654;5.476;2022-07-10T05:17:08;7.07;;;1.60;;
72920;SDS011;61064;51.654;5.476;2022-07-10T05:19:33;7.13;;;1.50;;
72920;SDS011;61064;51.654;5.476;2022-07-10T05:22:00;7.93;;;1.85;;
72920;SDS011;61064;51.654;5.476;2022-07-10T05:24:25;6.57;;;1.50;;
72920;SDS011;61064;51.654;5.476;2022-07-10T05:26:51;9.37;;;1.57;;
72920;SDS011;61064;51.654;5.476;2022-07-10T05:29:16;9.47;;;1.43;;
72920;SDS011;61064;51.654;5.476;2022-07-10T05:31:42;10.65;;;1.58;;
72920;SDS011;61064;51.654;5.476;2022-07-10T05:34:07;8.47;;;1.30;;
72920;SDS011;61064;51.654;5.476;2022-07-10T05:36:32;8.37;;;1.10;;
72920;SDS011;61064;51.654;5.476;2022-07-10T05:38:58;7.13;;;1.20;;
72920;SDS011;61064;51.654;5.476;2022-07-10T05:41:23;8.57;;;1.40;;
72920;SDS011;61064;51.654;5.476;2022-07-10T05:43:48;6.87;;;1.40;;
72920;SDS011;61064;51.654;5.476;2022-07-10T05:46:14;7.68;;;1.00;;
72920;SDS011;61064;51.654;5.476;2022-07-10T05:48:39;8.90;;;1.40;;
72920;SDS011;61064;51.654;5.476;2022-07-10T05:51:04;6.90;;;1.47;;
72920;SDS011;61064;51.654;5.476;2022-07-10T05:53:30;9.90;;;1.30;;
72920;SDS011;61064;51.654;5.476;2022-07-10T05:55:59;7.07;;;1.10;;
72920;SDS011;61064;51.654;5.476;2022-07-10T05:58:26;8.80;;;1.15;;
72920;SDS011;61064;51.654;5.476;2022-07-10T06:00:51;7.53;;;1.10;;
72920;SDS011;61064;51.654;5.476;2022-07-10T06:03:16;8.90;;;1.02;;
72920;SDS011;61064;51.654;5.476;2022-07-10T06:05:42;8.53;;;1.20;;
72920;SDS011;61064;51.654;5.476;2022-07-10T06:08:07;7.73;;;1.00;;
72920;SDS011;61064;51.654;5.476;2022-07-10T06:10:33;8.17;;;1.20;;
72920;SDS011;61064;51.654;5.476;2022-07-10T06:12:58;8.13;;;1.10;;
72920;SDS011;61064;51.654;5.476;2022-07-10T06:15:23;8.70;;;1.40;;
72920;SDS011;61064;51.654;5.476;2022-07-10T06:17:49;7.80;;;1.10;;
72920;SDS011;61064;51.654;5.476;2022-07-10T06:20:14;9.67;;;1.60;;
72920;SDS011;61064;51.654;5.476;2022-07-10T06:22:39;9.23;;;1.47;;
72920;SDS011;61064;51.654;5.476;2022-07-10T06:25:05;8.53;;;1.10;;
72920;SDS011;61064;51.654;5.476;2022-07-10T06:27:32;9.18;;;1.15;;
72920;SDS011;61064;51.654;5.476;2022-07-10T06:29:58;8.00;;;1.00;;
72920;SDS011;61064;51.654;5.476;2022-07-10T06:32:25;7.93;;;1.13;;
72920;SDS011;61064;51.654;5.476;2022-07-10T06:34:51;6.88;;;0.90;;
72920;SDS011;61064;51.654;5.476;2022-07-10T06:37:17;9.50;;;1.60;;
72920;SDS011;61064;51.654;5.476;2022-07-10T06:39:43;6.85;;;1.00;;
72920;SDS011;61064;51.654;5.476;2022-07-10T06:42:09;9.05;;;1.00;;
72920;SDS011;61064;51.654;5.476;2022-07-10T06:44:35;6.60;;;0.90;;
72920;SDS011;61064;51.654;5.476;2022-07-10T06:47:00;5.10;;;0.70;;
72920;SDS011;61064;51.654;5.476;2022-07-10T06:49:45;6.38;;;1.00;;
72920;SDS011;61064;51.654;5.476;2022-07-10T06:52:13;9.63;;;1.33;;
72920;SDS011;61064;51.654;5.476;2022-07-10T06:54:40;5.97;;;0.90;;
72920;SDS011;61064;51.654;5.476;2022-07-10T06:57:06;8.88;;;1.30;;
72920;SDS011;61064;51.654;5.476;2022-07-10T06:59:31;5.27;;;1.00;;
72920;SDS011;61064;51.654;5.476;2022-07-10T07:01:57;7.83;;;1.10;;
72920;SDS011;61064;51.654;5.476;2022-07-10T07:04:22;7.80;;;1.10;;
72920;SDS011;61064;51.654;5.476;2022-07-10T07:06:48;6.95;;;1.20;;
72920;SDS011;61064;51.654;5.476;2022-07-10T07:09:13;7.03;;;1.10;;
72920;SDS011;61064;51.654;5.476;2022-07-10T07:11:38;8.57;;;1.17;;
72920;SDS011;61064;51.654;5.476;2022-07-10T07:14:04;10.83;;;1.20;;
72920;SDS011;61064;51.654;5.476;2022-07-10T07:16:29;8.47;;;1.50;;
72920;SDS011;61064;51.654;5.476;2022-07-10T07:19:07;8.57;;;1.00;;
72920;SDS011;61064;51.654;5.476;2022-07-10T07:21:33;9.63;;;1.10;;
72920;SDS011;61064;51.654;5.476;2022-07-10T07:24:17;9.80;;;1.70;;
72920;SDS011;61064;51.654;5.476;2022-07-10T07:26:44;10.53;;;2.10;;
72920;SDS011;61064;51.654;5.476;2022-07-10T07:29:12;13.73;;;2.70;;
72920;SDS011;61064;51.654;5.476;2022-07-10T07:31:42;11.95;;;2.20;;
72920;SDS011;61064;51.654;5.476;2022-07-10T07:34:08;9.07;;;1.80;;
72920;SDS011;61064;51.654;5.476;2022-07-10T07:36:34;9.30;;;1.90;;
72920;SDS011;61064;51.654;5.476;2022-07-10T07:38:59;9.10;;;1.55;;
72920;SDS011;61064;51.654;5.476;2022-07-10T07:41:24;9.77;;;1.60;;
72920;SDS011;61064;51.654;5.476;2022-07-10T07:43:50;6.50;;;1.40;;
72920;SDS011;61064;51.654;5.476;2022-07-10T07:46:17;7.40;;;1.42;;
72920;SDS011;61064;51.654;5.476;2022-07-10T07:48:43;9.02;;;1.50;;
72920;SDS011;61064;51.654;5.476;2022-07-10T07:51:08;7.87;;;1.70;;
72920;SDS011;61064;51.654;5.476;2022-07-10T07:53:34;9.53;;;1.50;;
72920;SDS011;61064;51.654;5.476;2022-07-10T07:55:59;8.00;;;1.13;;
72920;SDS011;61064;51.654;5.476;2022-07-10T07:58:24;10.60;;;1.40;;
72920;SDS011;61064;51.654;5.476;2022-07-10T08:00:50;8.40;;;1.20;;
72920;SDS011;61064;51.654;5.476;2022-07-10T08:03:15;8.43;;;1.33;;
72920;SDS011;61064;51.654;5.476;2022-07-10T08:05:41;8.87;;;1.87;;
72920;SDS011;61064;51.654;5.476;2022-07-10T08:08:07;9.93;;;2.30;;
72920;SDS011;61064;51.654;5.476;2022-07-10T08:10:35;8.27;;;1.83;;
72920;SDS011;61064;51.654;5.476;2022-07-10T08:13:01;7.63;;;1.50;;
72920;SDS011;61064;51.654;5.476;2022-07-10T08:15:27;10.30;;;1.90;;
72920;SDS011;61064;51.654;5.476;2022-07-10T08:17:54;9.85;;;1.50;;
72920;SDS011;61064;51.654;5.476;2022-07-10T08:20:21;8.73;;;1.67;;
72920;SDS011;61064;51.654;5.476;2022-07-10T08:22:47;9.05;;;1.70;;
72920;SDS011;61064;51.654;5.476;2022-07-10T08:25:13;6.97;;;1.45;;
72920;SDS011;61064;51.654;5.476;2022-07-10T08:27:39;8.13;;;1.80;;
72920;SDS011;61064;51.654;5.476;2022-07-10T08:30:06;12.20;;;1.97;;
72920;SDS011;61064;51.654;5.476;2022-07-10T08:32:33;10.20;;;3.80;;
72920;SDS011;61064;51.654;5.476;2022-07-10T08:34:59;8.27;;;2.00;;
72920;SDS011;61064;51.654;5.476;2022-07-10T08:37:24;8.55;;;1.40;;
72920;SDS011;61064;51.654;5.476;2022-07-10T08:39:50;8.73;;;1.53;;
72920;SDS011;61064;51.654;5.476;2022-07-10T08:42:15;8.17;;;1.40;;
72920;SDS011;61064;51.654;5.476;2022-07-10T08:44:42;10.48;;;1.83;;
72920;SDS011;61064;51.654;5.476;2022-07-10T08:47:08;8.93;;;1.60;;
72920;SDS011;61064;51.654;5.476;2022-07-10T08:49:36;10.25;;;1.77;;
72920;SDS011;61064;51.654;5.476;2022-07-10T08:52:05;8.17;;;1.80;;
72920;SDS011;61064;51.654;5.476;2022-07-10T08:54:34;8.35;;;1.65;;
72920;SDS011;61064;51.654;5.476;2022-07-10T08:57:01;7.65;;;1.60;;
72920;SDS011;61064;51.654;5.476;2022-07-10T08:59:28;6.85;;;1.50;;
72920;SDS011;61064;51.654;5.476;2022-07-10T09:01:55;8.00;;;1.40;;
72920;SDS011;61064;51.654;5.476;2022-07-10T09:04:21;7.68;;;1.67;;
72920;SDS011;61064;51.654;5.476;2022-07-10T09:06:48;8.63;;;1.70;;
72920;SDS011;61064;51.654;5.476;2022-07-10T09:09:14;8.40;;;1.70;;
72920;SDS011;61064;51.654;5.476;2022-07-10T09:11:40;7.50;;;1.60;;
72920;SDS011;61064;51.654;5.476;2022-07-10T09:14:07;8.23;;;1.73;;
72920;SDS011;61064;51.654;5.476;2022-07-10T09:16:37;7.97;;;1.60;;
72920;SDS011;61064;51.654;5.476;2022-07-10T09:19:15;9.97;;;1.70;;
72920;SDS011;61064;51.654;5.476;2022-07-10T09:21:48;7.40;;;1.55;;
72920;SDS011;61064;51.654;5.476;2022-07-10T09:24:15;7.28;;;1.40;;
72920;SDS011;61064;51.654;5.476;2022-07-10T09:29:22;7.00;;;1.40;;
72920;SDS011;61064;51.654;5.476;2022-07-10T09:31:50;8.90;;;1.50;;
72920;SDS011;61064;51.654;5.476;2022-07-10T09:34:16;8.60;;;1.27;;
72920;SDS011;61064;51.654;5.476;2022-07-10T09:36:42;7.30;;;1.53;;
72920;SDS011;61064;51.654;5.476;2022-07-10T09:39:08;8.40;;;1.43;;
72920;SDS011;61064;51.654;5.476;2022-07-10T09:41:33;7.07;;;1.70;;
72920;SDS011;61064;51.654;5.476;2022-07-10T09:44:03;7.87;;;1.50;;
72920;SDS011;61064;51.654;5.476;2022-07-10T09:49:11;6.78;;;1.52;;
72920;SDS011;61064;51.654;5.476;2022-07-10T09:51:44;7.57;;;1.88;;
72920;SDS011;61064;51.654;5.476;2022-07-10T09:54:11;8.27;;;2.00;;
72920;SDS011;61064;51.654;5.476;2022-07-10T09:56:40;8.40;;;1.90;;
72920;SDS011;61064;51.654;5.476;2022-07-10T09:59:19;8.75;;;2.15;;
72920;SDS011;61064;51.654;5.476;2022-07-10T10:01:49;8.40;;;2.35;;
72920;SDS011;61064;51.654;5.476;2022-07-10T10:04:16;9.23;;;2.10;;
72920;SDS011;61064;51.654;5.476;2022-07-10T10:06:49;7.00;;;1.90;;
72920;SDS011;61064;51.654;5.476;2022-07-10T10:09:30;8.50;;;1.60;;
72920;SDS011;61064;51.654;5.476;2022-07-10T10:12:01;7.57;;;1.50;;
72920;SDS011;61064;51.654;5.476;2022-07-10T10:14:32;5.80;;;1.20;;
72920;SDS011;61064;51.654;5.476;2022-07-10T10:16:59;6.40;;;1.60;;
72920;SDS011;61064;51.654;5.476;2022-07-10T10:19:26;7.70;;;1.43;;
72920;SDS011;61064;51.654;5.476;2022-07-10T10:22:11;5.15;;;1.20;;
72920;SDS011;61064;51.654;5.476;2022-07-10T10:24:40;6.82;;;1.38;;
72920;SDS011;61064;51.654;5.476;2022-07-10T10:27:07;6.40;;;1.35;;
72920;SDS011;61064;51.654;5.476;2022-07-10T10:29:34;7.53;;;2.53;;
72920;SDS011;61064;51.654;5.476;2022-07-10T10:32:01;6.67;;;1.50;;
72920;SDS011;61064;51.654;5.476;2022-07-10T10:34:48;7.20;;;1.33;;
72920;SDS011;61064;51.654;5.476;2022-07-10T10:39:53;7.23;;;1.40;;
72920;SDS011;61064;51.654;5.476;2022-07-10T10:42:32;6.82;;;1.52;;
72920;SDS011;61064;51.654;5.476;2022-07-10T10:48:13;8.10;;;1.38;;
72920;SDS011;61064;51.654;5.476;2022-07-10T10:50:41;5.50;;;1.50;;
72920;SDS011;61064;51.654;5.476;2022-07-10T10:53:17;5.93;;;1.30;;
72920;SDS011;61064;51.654;5.476;2022-07-10T10:58:25;6.22;;;1.52;;
72920;SDS011;61064;51.654;5.476;2022-07-10T11:01:32;6.30;;;1.23;;
72920;SDS011;61064;51.654;5.476;2022-07-10T11:12:09;5.57;;;1.25;;
72920;SDS011;61064;51.654;5.476;2022-07-10T11:14:35;7.03;;;1.73;;
72920;SDS011;61064;51.654;5.476;2022-07-10T11:17:03;5.35;;;1.52;;
72920;SDS011;61064;51.654;5.476;2022-07-10T11:19:29;5.77;;;1.30;;
72920;SDS011;61064;51.654;5.476;2022-07-10T11:22:12;6.15;;;1.25;;
72920;SDS011;61064;51.654;5.476;2022-07-10T11:24:51;4.70;;;1.30;;
72920;SDS011;61064;51.654;5.476;2022-07-10T11:27:36;5.18;;;1.05;;
72920;SDS011;61064;51.654;5.476;2022-07-10T11:30:17;5.50;;;1.35;;
72920;SDS011;61064;51.654;5.476;2022-07-10T11:32:42;6.43;;;1.30;;
72920;SDS011;61064;51.654;5.476;2022-07-10T11:35:14;7.63;;;1.30;;
72920;SDS011;61064;51.654;5.476;2022-07-10T11:37:52;5.47;;;1.10;;
72920;SDS011;61064;51.654;5.476;2022-07-10T11:40:18;6.07;;;1.20;;
72920;SDS011;61064;51.654;5.476;2022-07-10T11:42:51;6.67;;;1.20;;
72920;SDS011;61064;51.654;5.476;2022-07-10T11:45:22;7.50;;;1.38;;
72920;SDS011;61064;51.654;5.476;2022-07-10T11:47:48;5.97;;;1.40;;
72920;SDS011;61064;51.654;5.476;2022-07-10T11:50:17;4.97;;;1.00;;
72920;SDS011;61064;51.654;5.476;2022-07-10T11:52:47;5.78;;;1.27;;
72920;SDS011;61064;51.654;5.476;2022-07-10T11:55:15;8.88;;;1.40;;
72920;SDS011;61064;51.654;5.476;2022-07-10T11:57:41;6.97;;;1.27;;
72920;SDS011;61064;51.654;5.476;2022-07-10T12:00:20;4.33;;;1.00;;
72920;SDS011;61064;51.654;5.476;2022-07-10T12:02:54;4.88;;;1.20;;
72920;SDS011;61064;51.654;5.476;2022-07-10T12:05:29;4.43;;;0.95;;
72920;SDS011;61064;51.654;5.476;2022-07-10T12:07:56;5.90;;;1.10;;
72920;SDS011;61064;51.654;5.476;2022-07-10T12:10:25;6.20;;;1.17;;
72920;SDS011;61064;51.654;5.476;2022-07-10T12:12:51;5.18;;;1.17;;
72920;SDS011;61064;51.654;5.476;2022-07-10T12:15:33;5.90;;;1.07;;
72920;SDS011;61064;51.654;5.476;2022-07-10T12:17:59;5.47;;;0.90;;
72920;SDS011;61064;51.654;5.476;2022-07-10T12:20:24;4.53;;;0.80;;
72920;SDS011;61064;51.654;5.476;2022-07-10T12:22:50;5.70;;;1.00;;
72920;SDS011;61064;51.654;5.476;2022-07-10T12:25:18;4.78;;;0.90;;
72920;SDS011;61064;51.654;5.476;2022-07-10T12:27:45;3.67;;;0.90;;
72920;SDS011;61064;51.654;5.476;2022-07-10T12:30:10;4.37;;;1.00;;
72920;SDS011;61064;51.654;5.476;2022-07-10T12:32:36;6.93;;;1.00;;
72920;SDS011;61064;51.654;5.476;2022-07-10T12:35:04;3.47;;;1.00;;
72920;SDS011;61064;51.654;5.476;2022-07-10T12:37:32;6.68;;;1.02;;
72920;SDS011;61064;51.654;5.476;2022-07-10T12:39:58;4.50;;;1.10;;
72920;SDS011;61064;51.654;5.476;2022-07-10T12:42:24;4.32;;;1.02;;
72920;SDS011;61064;51.654;5.476;2022-07-10T12:44:51;6.63;;;1.10;;
72920;SDS011;61064;51.654;5.476;2022-07-10T12:47:17;5.45;;;1.10;;
72920;SDS011;61064;51.654;5.476;2022-07-10T12:52:20;5.53;;;0.90;;
72920;SDS011;61064;51.654;5.476;2022-07-10T12:54:46;6.15;;;0.90;;
72920;SDS011;61064;51.654;5.476;2022-07-10T12:57:11;4.17;;;0.80;;
72920;SDS011;61064;51.654;5.476;2022-07-10T12:59:37;6.40;;;1.00;;
72920;SDS011;61064;51.654;5.476;2022-07-10T13:02:18;5.77;;;1.13;;
72920;SDS011;61064;51.654;5.476;2022-07-10T13:04:52;6.00;;;1.08;;
72920;SDS011;61064;51.654;5.476;2022-07-10T13:07:30;5.15;;;1.05;;
72920;SDS011;61064;51.654;5.476;2022-07-10T13:10:04;7.13;;;1.00;;
72920;SDS011;61064;51.654;5.476;2022-07-10T13:12:31;3.70;;;1.00;;
72920;SDS011;61064;51.654;5.476;2022-07-10T13:14:57;4.78;;;1.10;;
72920;SDS011;61064;51.654;5.476;2022-07-10T13:17:23;4.87;;;1.00;;
72920;SDS011;61064;51.654;5.476;2022-07-10T13:19:49;4.57;;;0.90;;
72920;SDS011;61064;51.654;5.476;2022-07-10T13:22:15;3.93;;;0.90;;
72920;SDS011;61064;51.654;5.476;2022-07-10T13:24:41;3.65;;;0.90;;
72920;SDS011;61064;51.654;5.476;2022-07-10T13:27:06;6.47;;;1.00;;
72920;SDS011;61064;51.654;5.476;2022-07-10T13:29:32;4.20;;;0.70;;
72920;SDS011;61064;51.654;5.476;2022-07-10T13:31:58;5.65;;;1.02;;
72920;SDS011;61064;51.654;5.476;2022-07-10T13:34:23;5.03;;;0.97;;
72920;SDS011;61064;51.654;5.476;2022-07-10T13:36:49;3.97;;;0.80;;
72920;SDS011;61064;51.654;5.476;2022-07-10T13:39:16;3.47;;;0.80;;
72920;SDS011;61064;51.654;5.476;2022-07-10T13:41:41;5.47;;;1.42;;
72920;SDS011;61064;51.654;5.476;2022-07-10T13:44:07;4.73;;;1.00;;
72920;SDS011;61064;51.654;5.476;2022-07-10T13:46:36;3.03;;;0.80;;
72920;SDS011;61064;51.654;5.476;2022-07-10T13:49:02;4.03;;;0.70;;
72920;SDS011;61064;51.654;5.476;2022-07-10T13:51:28;6.25;;;0.88;;
72920;SDS011;61064;51.654;5.476;2022-07-10T13:53:54;4.20;;;0.80;;
72920;SDS011;61064;51.654;5.476;2022-07-10T13:56:19;5.45;;;1.00;;
72920;SDS011;61064;51.654;5.476;2022-07-10T13:58:45;5.60;;;0.90;;
72920;SDS011;61064;51.654;5.476;2022-07-10T14:01:11;4.22;;;0.80;;
72920;SDS011;61064;51.654;5.476;2022-07-10T14:03:36;4.37;;;0.97;;
72920;SDS011;61064;51.654;5.476;2022-07-10T14:06:05;4.47;;;0.80;;
72920;SDS011;61064;51.654;5.476;2022-07-10T14:08:30;4.53;;;0.90;;
72920;SDS011;61064;51.654;5.476;2022-07-10T14:10:56;5.03;;;0.90;;
72920;SDS011;61064;51.654;5.476;2022-07-10T14:13:21;4.63;;;0.90;;
72920;SDS011;61064;51.654;5.476;2022-07-10T14:15:47;5.30;;;1.00;;
72920;SDS011;61064;51.654;5.476;2022-07-10T14:18:13;6.18;;;0.90;;
72920;SDS011;61064;51.654;5.476;2022-07-10T14:20:38;5.10;;;1.00;;
72920;SDS011;61064;51.654;5.476;2022-07-10T14:23:22;6.05;;;0.90;;
72920;SDS011;61064;51.654;5.476;2022-07-10T14:25:47;4.00;;;0.80;;
72920;SDS011;61064;51.654;5.476;2022-07-10T14:28:14;4.63;;;0.83;;
72920;SDS011;61064;51.654;5.476;2022-07-10T14:30:42;5.38;;;0.90;;
72920;SDS011;61064;51.654;5.476;2022-07-10T14:33:08;5.65;;;0.90;;
72920;SDS011;61064;51.654;5.476;2022-07-10T14:35:34;4.88;;;0.80;;
72920;SDS011;61064;51.654;5.476;2022-07-10T14:37:59;4.67;;;0.80;;
72920;SDS011;61064;51.654;5.476;2022-07-10T14:40:25;4.63;;;1.00;;
72920;SDS011;61064;51.654;5.476;2022-07-10T14:42:50;6.53;;;1.00;;
72920;SDS011;61064;51.654;5.476;2022-07-10T14:45:15;6.53;;;1.17;;
72920;SDS011;61064;51.654;5.476;2022-07-10T14:47:41;6.20;;;1.13;;
72920;SDS011;61064;51.654;5.476;2022-07-10T14:50:06;5.47;;;1.10;;
72920;SDS011;61064;51.654;5.476;2022-07-10T14:52:33;4.80;;;0.90;;
72920;SDS011;61064;51.654;5.476;2022-07-10T14:54:58;4.57;;;0.80;;
72920;SDS011;61064;51.654;5.476;2022-07-10T14:57:27;5.35;;;1.20;;
72920;SDS011;61064;51.654;5.476;2022-07-10T14:59:52;3.42;;;0.80;;
72920;SDS011;61064;51.654;5.476;2022-07-10T15:02:17;2.93;;;0.70;;
72920;SDS011;61064;51.654;5.476;2022-07-10T15:04:43;3.90;;;1.07;;
72920;SDS011;61064;51.654;5.476;2022-07-10T15:07:08;6.40;;;0.90;;
72920;SDS011;61064;51.654;5.476;2022-07-10T15:09:33;4.90;;;0.90;;
72920;SDS011;61064;51.654;5.476;2022-07-10T15:11:59;6.40;;;1.30;;